Time;durP1;ratioP1;P1;durP2;ratioP2;P2;SDS_P1;SDS_P2;PMS_P1;PMS_P2;Temp;Humidity;BMP_temperature;BMP_pressure;BME280_temperature;BME280_humidity;BME280_pressure;Samples;Min_cycle;Max_cycle;Signal;HPM_P1;HPM_P2
2023/05/17 00:01:48;;;;;;;6.93;1.65;;;;;;;;;;5069957;28;20033;-76
2023/05/17 00:04:13;;;;;;;5.97;1.75;;;;;;;;;;5050814;28;20579;-75
2023/05/17 00:06:39;;;;;;;4.72;1.45;;;;;;;;;;5069013;28;20028;-75
2023/05/17 00:09:05;;;;;;;6.80;1.13;;;;;;;;;;5069217;28;20141;-75
2023/05/17 00:11:31;;;;;;;5.82;1.33;;;;;;;;;;5068891;28;20120;-75
2023/05/17 00:13:57;;;;;;;1.98;0.95;;;;;;;;;;5051032;28;20166;-75
2023/05/17 00:16:24;;;;;;;6.18;1.27;;;;;;;;;;5069279;28;20385;-75
2023/05/17 00:18:49;;;;;;;11.38;1.45;;;;;;;;;;5051146;28;20433;-76
2023/05/17 00:21:15;;;;;;;6.45;1.10;;;;;;;;;;5050972;28;20104;-75
2023/05/17 00:23:40;;;;;;;4.28;1.60;;;;;;;;;;5069208;28;20063;-75
2023/05/17 00:26:06;;;;;;;3.72;0.80;;;;;;;;;;5051574;28;20077;-75
2023/05/17 00:28:31;;;;;;;4.68;0.95;;;;;;;;;;5051115;28;20394;-74
2023/05/17 00:30:57;;;;;;;4.28;1.25;;;;;;;;;;5051790;28;20178;-75
2023/05/17 00:33:22;;;;;;;4.72;0.90;;;;;;;;;;5069336;28;20058;-75
2023/05/17 00:35:48;;;;;;;3.55;0.90;;;;;;;;;;5032680;28;20041;-74
2023/05/17 00:38:13;;;;;;;4.28;1.00;;;;;;;;;;5049507;28;20036;-74
2023/05/17 00:40:39;;;;;;;5.32;1.25;;;;;;;;;;5049662;28;20033;-74
2023/05/17 00:43:04;;;;;;;5.15;1.02;;;;;;;;;;5031271;28;20404;-74
2023/05/17 00:45:30;;;;;;;4.85;0.93;;;;;;;;;;5050550;28;20033;-76
2023/05/17 00:47:56;;;;;;;5.07;1.67;;;;;;;;;;5053828;28;20123;-75
2023/05/17 00:50:21;;;;;;;1.73;0.93;;;;;;;;;;5035226;28;20311;-76
2023/05/17 00:52:47;;;;;;;4.82;0.80;;;;;;;;;;5035282;28;20521;-76
2023/05/17 00:55:12;;;;;;;2.35;1.10;;;;;;;;;;5034810;28;20072;-74
2023/05/17 00:57:39;;;;;;;1.48;0.80;;;;;;;;;;5053474;28;20064;-76
2023/05/17 01:00:06;;;;;;;3.80;0.90;;;;;;;;;;5047176;28;20573;-76
2023/05/17 01:02:31;;;;;;;3.53;0.68;;;;;;;;;;5055219;28;20465;-76
2023/05/17 01:04:57;;;;;;;6.10;1.05;;;;;;;;;;5055471;28;20127;-76
2023/05/17 01:07:22;;;;;;;2.47;0.95;;;;;;;;;;5073845;28;20063;-77
2023/05/17 01:09:48;;;;;;;2.50;1.17;;;;;;;;;;5056825;28;20124;-76
2023/05/17 01:12:37;;;;;;;2.67;0.88;;;;;;;;;;5055033;28;20025;-75
2023/05/17 01:15:14;;;;;;;2.60;0.90;;;;;;;;;;5062298;28;20040;-75
2023/05/17 01:17:42;;;;;;;2.15;0.98;;;;;;;;;;5053079;28;20029;-75
2023/05/17 01:20:11;;;;;;;4.00;1.50;;;;;;;;;;5035308;28;20025;-75
2023/05/17 01:23:14;;;;;;;5.00;1.00;;;;;;;;;;5053195;28;20603;-75
2023/05/17 01:25:58;;;;;;;3.90;0.90;;;;;;;;;;5053245;28;20041;-75
2023/05/17 01:28:25;;;;;;;4.53;1.13;;;;;;;;;;5052909;28;20032;-75
2023/05/17 01:30:51;;;;;;;5.38;1.08;;;;;;;;;;5034988;28;20377;-75
2023/05/17 01:33:19;;;;;;;6.95;1.63;;;;;;;;;;5034524;28;20036;-74
2023/05/17 01:35:44;;;;;;;8.70;1.90;;;;;;;;;;5034960;28;20174;-76
2023/05/17 01:38:10;;;;;;;3.83;0.90;;;;;;;;;;5035137;28;20108;-75
2023/05/17 01:40:43;;;;;;;6.32;0.93;;;;;;;;;;5034952;28;20037;-75
2023/05/17 01:43:17;;;;;;;4.70;1.23;;;;;;;;;;5035512;28;20040;-75
2023/05/17 01:46:04;;;;;;;2.03;0.70;;;;;;;;;;5036004;28;20053;-77
2023/05/17 01:48:40;;;;;;;4.47;1.30;;;;;;;;;;5058414;28;20032;-75
2023/05/17 01:51:08;;;;;;;2.92;1.25;;;;;;;;;;5059174;28;20030;-75
2023/05/17 01:53:54;;;;;;;2.75;0.63;;;;;;;;;;5078999;28;20157;-76
2023/05/17 01:56:26;;;;;;;2.35;0.80;;;;;;;;;;5058224;28;20035;-76
2023/05/17 01:58:53;;;;;;;5.35;1.38;;;;;;;;;;5075815;28;20028;-76
2023/05/17 02:01:20;;;;;;;7.60;1.45;;;;;;;;;;5054350;28;20036;-76
2023/05/17 02:03:49;;;;;;;5.63;1.05;;;;;;;;;;5034812;28;20063;-76
2023/05/17 02:06:16;;;;;;;3.35;0.75;;;;;;;;;;5052531;28;20033;-76
2023/05/17 02:08:41;;;;;;;5.07;1.48;;;;;;;;;;5034196;28;20040;-76
2023/05/17 02:11:07;;;;;;;2.53;1.13;;;;;;;;;;5051388;28;20035;-76
2023/05/17 02:13:33;;;;;;;3.33;0.90;;;;;;;;;;5032768;28;20052;-77
2023/05/17 02:16:02;;;;;;;4.00;0.95;;;;;;;;;;5050843;28;20466;-76
2023/05/17 02:18:28;;;;;;;4.75;0.98;;;;;;;;;;5032963;28;20079;-76
2023/05/17 02:20:53;;;;;;;6.43;1.17;;;;;;;;;;5033339;28;20118;-76
2023/05/17 02:23:19;;;;;;;5.10;1.20;;;;;;;;;;5033564;28;20032;-75
2023/05/17 02:25:44;;;;;;;2.90;0.93;;;;;;;;;;5033797;28;20079;-75
2023/05/17 02:28:10;;;;;;;2.42;1.02;;;;;;;;;;5033644;28;20041;-77
2023/05/17 02:30:39;;;;;;;1.98;1.13;;;;;;;;;;5033504;28;20037;-76
2023/05/17 02:33:05;;;;;;;2.15;0.80;;;;;;;;;;5051459;28;20123;-76
2023/05/17 02:35:31;;;;;;;2.88;1.13;;;;;;;;;;5051314;28;20113;-75
2023/05/17 02:37:56;;;;;;;6.85;1.67;;;;;;;;;;5033389;28;20045;-75
2023/05/17 02:40:22;;;;;;;3.97;0.68;;;;;;;;;;5033074;28;20033;-75
2023/05/17 02:42:47;;;;;;;2.05;0.80;;;;;;;;;;5034023;28;20098;-75
2023/05/17 02:45:13;;;;;;;6.40;1.20;;;;;;;;;;5034123;28;20391;-75
2023/05/17 02:47:38;;;;;;;5.13;1.02;;;;;;;;;;5052037;28;20111;-75
2023/05/17 02:50:04;;;;;;;7.30;1.05;;;;;;;;;;5034591;28;20021;-75
2023/05/17 02:52:30;;;;;;;4.72;1.00;;;;;;;;;;5034755;28;20037;-75
2023/05/17 02:54:55;;;;;;;1.75;1.33;;;;;;;;;;5034503;28;20493;-75
2023/05/17 02:57:21;;;;;;;4.53;1.00;;;;;;;;;;5051728;28;20064;-74
2023/05/17 02:59:46;;;;;;;4.22;0.90;;;;;;;;;;5052396;28;20033;-75
2023/05/17 03:02:12;;;;;;;4.30;0.90;;;;;;;;;;5033780;28;20035;-75
2023/05/17 03:04:37;;;;;;;6.15;0.93;;;;;;;;;;5033996;28;20070;-76
2023/05/17 03:07:03;;;;;;;8.48;1.38;;;;;;;;;;5053322;28;20696;-75
2023/05/17 03:09:29;;;;;;;10.35;1.75;;;;;;;;;;5070351;28;20029;-75
2023/05/17 03:11:54;;;;;;;3.10;1.48;;;;;;;;;;5070641;28;20040;-76
2023/05/17 03:14:20;;;;;;;3.10;0.98;;;;;;;;;;5052642;28;20040;-76
2023/05/17 03:16:46;;;;;;;6.20;1.40;;;;;;;;;;5070380;28;20649;-75
2023/05/17 03:19:11;;;;;;;6.05;0.98;;;;;;;;;;5052994;28;20028;-75
2023/05/17 03:21:36;;;;;;;5.82;1.00;;;;;;;;;;5052353;28;20033;-74
2023/05/17 03:24:02;;;;;;;4.85;1.20;;;;;;;;;;5052592;28;20028;-74
2023/05/17 03:26:27;;;;;;;3.05;1.02;;;;;;;;;;5051624;28;20059;-74
2023/05/17 03:28:53;;;;;;;5.82;1.48;;;;;;;;;;5052106;28;20724;-75
2023/05/17 03:31:18;;;;;;;10.02;1.50;;;;;;;;;;5051666;28;20047;-75
2023/05/17 03:33:44;;;;;;;6.63;1.00;;;;;;;;;;5052536;28;20043;-76
2023/05/17 03:36:10;;;;;;;10.57;1.55;;;;;;;;;;5069972;28;20028;-75
2023/05/17 03:38:35;;;;;;;3.55;1.40;;;;;;;;;;5052081;28;20024;-75
2023/05/17 03:41:02;;;;;;;4.13;0.98;;;;;;;;;;5060532;28;20037;-76
2023/05/17 03:43:28;;;;;;;8.68;1.50;;;;;;;;;;5032429;28;20021;-76
2023/05/17 03:45:53;;;;;;;1.85;0.88;;;;;;;;;;5050468;28;20090;-76
2023/05/17 03:48:19;;;;;;;4.63;1.33;;;;;;;;;;5032236;28;20035;-75
2023/05/17 03:50:44;;;;;;;6.32;0.90;;;;;;;;;;5051526;28;20453;-76
2023/05/17 03:53:10;;;;;;;9.23;1.00;;;;;;;;;;5032692;28;20083;-76
2023/05/17 03:55:36;;;;;;;4.90;0.70;;;;;;;;;;5055137;28;20098;-75
2023/05/17 03:58:01;;;;;;;2.33;0.95;;;;;;;;;;5070116;28;20437;-74
2023/05/17 04:00:27;;;;;;;2.20;0.93;;;;;;;;;;5052092;28;20050;-75
2023/05/17 04:02:52;;;;;;;5.30;1.40;;;;;;;;;;5052388;28;20357;-75
2023/05/17 04:05:18;;;;;;;3.30;1.05;;;;;;;;;;5050016;28;20032;-75
2023/05/17 04:07:44;;;;;;;3.90;1.15;;;;;;;;;;5050306;28;20454;-74
2023/05/17 04:10:10;;;;;;;4.37;1.13;;;;;;;;;;5050289;28;20027;-75
2023/05/17 04:12:36;;;;;;;12.93;1.40;;;;;;;;;;5031695;28;20512;-76
2023/05/17 04:15:03;;;;;;;5.07;1.00;;;;;;;;;;5049428;28;20062;-75
2023/05/17 04:17:28;;;;;;;8.07;1.27;;;;;;;;;;5069011;28;20032;-75
2023/05/17 04:19:54;;;;;;;4.70;0.88;;;;;;;;;;5051248;28;20513;-76
2023/05/17 04:22:20;;;;;;;5.50;1.48;;;;;;;;;;5050464;28;20563;-75
2023/05/17 04:24:46;;;;;;;25.35;3.05;;;;;;;;;;5030254;28;20039;-75
2023/05/17 04:27:12;;;;;;;7.72;1.17;;;;;;;;;;5031187;28;20405;-76
2023/05/17 04:29:37;;;;;;;3.60;0.98;;;;;;;;;;5048535;28;20033;-75
2023/05/17 04:32:03;;;;;;;14.57;1.80;;;;;;;;;;5024687;28;20029;-77
2023/05/17 04:34:30;;;;;;;5.15;1.88;;;;;;;;;;5041311;28;20037;-75
2023/05/17 04:36:56;;;;;;;5.80;1.50;;;;;;;;;;5026176;28;20037;-74
2023/05/17 04:39:22;;;;;;;4.35;1.60;;;;;;;;;;5042615;28;20029;-73
2023/05/17 04:41:47;;;;;;;5.90;1.60;;;;;;;;;;5022661;28;20528;-75
2023/05/17 04:44:17;;;;;;;4.72;1.60;;;;;;;;;;5024709;28;20475;-74
2023/05/17 04:46:44;;;;;;;7.25;2.83;;;;;;;;;;5042640;28;20111;-76
2023/05/17 04:49:10;;;;;;;7.03;1.42;;;;;;;;;;5027573;28;20025;-76
2023/05/17 04:51:35;;;;;;;6.38;1.75;;;;;;;;;;5027788;28;20551;-76
2023/05/17 04:54:05;;;;;;;6.63;1.30;;;;;;;;;;5058557;28;20430;-76
2023/05/17 04:56:32;;;;;;;3.88;1.05;;;;;;;;;;5025893;28;20037;-76
2023/05/17 04:58:58;;;;;;;8.80;1.88;;;;;;;;;;5041259;28;20033;-76
2023/05/17 05:01:23;;;;;;;5.80;1.50;;;;;;;;;;5045950;28;20473;-75
2023/05/17 05:03:50;;;;;;;6.30;1.58;;;;;;;;;;5037752;28;20083;-75
2023/05/17 05:06:15;;;;;;;7.13;1.55;;;;;;;;;;5031249;28;20037;-73
2023/05/17 05:08:41;;;;;;;6.68;2.17;;;;;;;;;;5030879;28;20473;-77
2023/05/17 05:11:09;;;;;;;5.97;1.58;;;;;;;;;;5045958;28;20033;-77
2023/05/17 05:13:37;;;;;;;9.13;2.05;;;;;;;;;;5023907;28;20041;-75
2023/05/17 05:16:06;;;;;;;4.37;1.33;;;;;;;;;;5036590;28;20096;-81
2023/05/17 05:18:32;;;;;;;7.50;1.90;;;;;;;;;;5031128;28;20036;-76
2023/05/17 05:20:58;;;;;;;4.25;1.58;;;;;;;;;;5028988;28;20138;-73
2023/05/17 05:23:24;;;;;;;10.68;1.85;;;;;;;;;;5036959;28;20028;-77
2023/05/17 05:25:49;;;;;;;3.35;1.27;;;;;;;;;;5033666;28;20036;-72
2023/05/17 05:28:15;;;;;;;6.97;1.85;;;;;;;;;;5027349;28;20021;-75
2023/05/17 05:30:40;;;;;;;4.18;1.55;;;;;;;;;;5029290;28;20033;-75
2023/05/17 05:33:07;;;;;;;5.53;1.70;;;;;;;;;;5030721;28;20088;-76
2023/05/17 05:35:33;;;;;;;3.75;1.65;;;;;;;;;;5026538;28;20036;-75
2023/05/17 05:37:58;;;;;;;14.30;2.40;;;;;;;;;;5052129;28;20120;-75
2023/05/17 05:40:27;;;;;;;6.15;1.92;;;;;;;;;;5034629;28;20469;-76
2023/05/17 05:42:52;;;;;;;7.97;1.83;;;;;;;;;;5026632;28;20033;-73
2023/05/17 05:45:20;;;;;;;12.77;2.60;;;;;;;;;;5044550;28;20115;-75
2023/05/17 05:47:49;;;;;;;7.57;2.05;;;;;;;;;;5024367;28;20537;-76
2023/05/17 05:50:15;;;;;;;12.20;2.65;;;;;;;;;;5064863;28;20024;-77
2023/05/17 05:52:40;;;;;;;8.60;2.93;;;;;;;;;;5046985;28;20946;-75
2023/05/17 05:55:06;;;;;;;7.75;1.95;;;;;;;;;;5014286;28;20076;-76
2023/05/17 05:57:32;;;;;;;9.35;2.97;;;;;;;;;;5030569;28;20033;-73
2023/05/17 05:59:57;;;;;;;8.17;2.13;;;;;;;;;;5036365;28;20029;-75
2023/05/17 06:02:25;;;;;;;7.95;2.72;;;;;;;;;;5028546;28;20029;-76
2023/05/17 06:04:50;;;;;;;10.65;2.10;;;;;;;;;;5026415;28;20079;-73
2023/05/17 06:07:17;;;;;;;10.32;2.28;;;;;;;;;;5045726;28;20099;-75
2023/05/17 06:09:43;;;;;;;9.35;3.03;;;;;;;;;;5049754;28;20048;-75
2023/05/17 06:12:09;;;;;;;7.15;2.75;;;;;;;;;;5028747;28;20037;-74
2023/05/17 06:14:36;;;;;;;11.65;2.78;;;;;;;;;;5035065;28;20036;-74
2023/05/17 06:17:02;;;;;;;8.50;2.42;;;;;;;;;;5017583;28;20034;-74
2023/05/17 06:19:27;;;;;;;10.15;2.75;;;;;;;;;;5018807;28;20062;-74
2023/05/17 06:21:53;;;;;;;11.55;3.60;;;;;;;;;;5035445;28;20028;-75
2023/05/17 06:24:18;;;;;;;11.05;3.10;;;;;;;;;;5028400;28;20471;-79
2023/05/17 06:26:45;;;;;;;6.78;2.58;;;;;;;;;;5022532;28;20033;-75
2023/05/17 06:29:11;;;;;;;13.63;2.70;;;;;;;;;;5025201;28;20042;-75
2023/05/17 06:31:37;;;;;;;13.40;3.30;;;;;;;;;;5028603;28;20069;-76
2023/05/17 06:34:02;;;;;;;9.07;3.50;;;;;;;;;;5025644;28;20082;-76
2023/05/17 06:36:28;;;;;;;11.98;3.25;;;;;;;;;;5027957;28;20079;-75
2023/05/17 06:38:55;;;;;;;15.40;3.30;;;;;;;;;;5043105;28;20521;-76
2023/05/17 06:41:20;;;;;;;8.10;3.42;;;;;;;;;;5031559;28;20037;-77
2023/05/17 06:43:46;;;;;;;13.27;3.45;;;;;;;;;;5027964;28;20031;-75
2023/05/17 06:46:26;;;;;;;13.30;3.15;;;;;;;;;;5041701;28;20075;-77
2023/05/17 06:48:54;;;;;;;10.55;3.67;;;;;;;;;;5037849;28;20037;-76
2023/05/17 06:51:20;;;;;;;6.40;2.47;;;;;;;;;;5017439;28;20101;-74
2023/05/17 06:53:46;;;;;;;13.55;4.20;;;;;;;;;;5033739;28;20033;-74
2023/05/17 06:56:11;;;;;;;8.52;3.10;;;;;;;;;;5017945;28;20049;-74
2023/05/17 06:58:41;;;;;;;13.02;3.75;;;;;;;;;;5043518;28;20500;-72
2023/05/17 07:01:07;;;;;;;12.13;3.97;;;;;;;;;;5022372;28;20036;-74
2023/05/17 07:03:33;;;;;;;15.48;3.83;;;;;;;;;;5041715;28;20021;-75
2023/05/17 07:06:00;;;;;;;10.30;4.05;;;;;;;;;;5029592;28;20025;-75
2023/05/17 07:08:26;;;;;;;7.00;2.75;;;;;;;;;;5025369;28;20048;-76
2023/05/17 07:10:52;;;;;;;10.27;3.58;;;;;;;;;;5042178;28;20025;-74
2023/05/17 07:13:17;;;;;;;13.43;3.40;;;;;;;;;;5049067;28;20730;-76
2023/05/17 07:15:44;;;;;;;10.38;3.28;;;;;;;;;;5024215;28;20024;-77
2023/05/17 07:18:09;;;;;;;8.70;2.97;;;;;;;;;;5020962;28;20119;-72
2023/05/17 07:20:36;;;;;;;10.73;3.05;;;;;;;;;;5025252;28;20125;-74
2023/05/17 07:23:02;;;;;;;12.93;4.35;;;;;;;;;;5036557;28;20485;-72
2023/05/17 07:25:28;;;;;;;13.10;4.00;;;;;;;;;;5025284;28;20094;-76
2023/05/17 07:27:54;;;;;;;8.85;3.00;;;;;;;;;;5030098;28;20041;-79
2023/05/17 07:30:19;;;;;;;8.95;3.80;;;;;;;;;;5038499;28;20374;-75
2023/05/17 07:32:46;;;;;;;8.05;3.53;;;;;;;;;;5021605;28;20044;-76
2023/05/17 07:35:14;;;;;;;10.45;3.55;;;;;;;;;;5048205;28;20045;-76
2023/05/17 07:37:40;;;;;;;8.55;3.58;;;;;;;;;;5023721;28;20128;-76
2023/05/17 07:40:07;;;;;;;13.73;3.90;;;;;;;;;;5036086;28;20135;-75
2023/05/17 07:42:33;;;;;;;9.25;3.72;;;;;;;;;;5023348;28;20040;-74
2023/05/17 07:44:59;;;;;;;9.57;3.17;;;;;;;;;;5019317;28;20044;-77
2023/05/17 07:47:25;;;;;;;10.82;3.85;;;;;;;;;;5018274;28;20033;-76
2023/05/17 07:49:51;;;;;;;14.68;3.65;;;;;;;;;;5018718;28;20044;-77
2023/05/17 07:52:16;;;;;;;11.18;3.72;;;;;;;;;;5047645;28;20085;-74
2023/05/17 07:54:42;;;;;;;10.13;3.85;;;;;;;;;;5030353;28;20520;-75
2023/05/17 07:57:07;;;;;;;8.38;3.45;;;;;;;;;;5047211;28;20106;-74
2023/05/17 07:59:33;;;;;;;6.90;3.17;;;;;;;;;;5036952;28;20082;-74
2023/05/17 08:02:00;;;;;;;11.43;3.53;;;;;;;;;;5024089;28;20036;-74
2023/05/17 08:04:26;;;;;;;10.30;4.05;;;;;;;;;;5030532;28;20151;-75
2023/05/17 08:06:51;;;;;;;8.98;3.22;;;;;;;;;;5046803;28;20497;-74
2023/05/17 08:09:18;;;;;;;10.57;2.92;;;;;;;;;;5022309;28;20040;-74
2023/05/17 08:11:46;;;;;;;7.82;2.42;;;;;;;;;;5028326;28;20034;-76
2023/05/17 08:14:15;;;;;;;6.70;2.75;;;;;;;;;;5034748;28;20378;-74
2023/05/17 08:16:44;;;;;;;14.05;3.78;;;;;;;;;;5028335;28;20052;-75
2023/05/17 08:19:14;;;;;;;5.82;2.80;;;;;;;;;;5021460;28;20040;-75
2023/05/17 08:21:40;;;;;;;12.20;3.22;;;;;;;;;;5031059;28;20024;-75
2023/05/17 08:24:06;;;;;;;10.98;2.95;;;;;;;;;;5025534;28;20249;-74
2023/05/17 08:26:32;;;;;;;7.43;3.28;;;;;;;;;;5022202;28;20037;-75
2023/05/17 08:29:03;;;;;;;10.60;3.80;;;;;;;;;;5031302;28;20032;-75
2023/05/17 08:31:35;;;;;;;14.23;3.65;;;;;;;;;;5027919;28;20049;-72
2023/05/17 08:34:02;;;;;;;10.63;3.05;;;;;;;;;;5051105;28;20032;-74
2023/05/17 08:36:29;;;;;;;9.68;3.78;;;;;;;;;;5040031;28;20040;-73
2023/05/17 08:38:57;;;;;;;7.80;3.40;;;;;;;;;;5030745;28;20032;-75
2023/05/17 08:41:27;;;;;;;9.95;3.40;;;;;;;;;;5019437;28;20037;-75
2023/05/17 08:43:54;;;;;;;6.70;3.80;;;;;;;;;;5021285;28;20045;-75
2023/05/17 08:46:20;;;;;;;9.75;3.35;;;;;;;;;;4999481;28;20033;-73
2023/05/17 08:48:50;;;;;;;21.80;5.13;;;;;;;;;;5022901;28;20053;-75
2023/05/17 08:51:16;;;;;;;7.00;3.28;;;;;;;;;;5019977;28;20140;-76
2023/05/17 08:53:45;;;;;;;6.85;3.25;;;;;;;;;;5020023;28;20056;-75
2023/05/17 08:56:15;;;;;;;6.30;2.88;;;;;;;;;;5041048;28;20562;-75
2023/05/17 08:58:43;;;;;;;10.23;4.57;;;;;;;;;;4999984;28;20498;-75
2023/05/17 09:01:22;;;;;;;18.50;4.78;;;;;;;;;;5025007;28;20138;-76
2023/05/17 09:03:49;;;;;;;12.73;3.90;;;;;;;;;;5023699;28;20032;-76
2023/05/17 09:06:19;;;;;;;8.65;3.20;;;;;;;;;;5026307;28;20048;-76
2023/05/17 09:08:51;;;;;;;6.82;3.13;;;;;;;;;;5021925;28;20544;-76
2023/05/17 09:11:37;;;;;;;6.53;2.67;;;;;;;;;;5032387;28;20079;-76
2023/05/17 09:14:06;;;;;;;14.00;3.08;;;;;;;;;;5038254;28;20047;-75
2023/05/17 09:16:36;;;;;;;72.43;12.40;;;;;;;;;;5029194;28;20041;-75
2023/05/17 09:19:03;;;;;;;7.72;2.97;;;;;;;;;;5050755;28;20565;-74
2023/05/17 09:21:30;;;;;;;13.80;3.38;;;;;;;;;;5049375;28;20472;-75
2023/05/17 09:24:00;;;;;;;9.15;3.67;;;;;;;;;;5033177;28;20122;-76
2023/05/17 09:26:40;;;;;;;7.47;2.70;;;;;;;;;;5022864;28;20033;-74
2023/05/17 09:29:17;;;;;;;12.65;3.78;;;;;;;;;;5038753;28;20013;-75
2023/05/17 09:31:44;;;;;;;9.40;3.35;;;;;;;;;;5010955;28;20106;-76
2023/05/17 09:34:11;;;;;;;7.82;3.00;;;;;;;;;;5034454;28;20037;-74
2023/05/17 09:36:42;;;;;;;5.70;2.55;;;;;;;;;;5019692;28;20043;-74
2023/05/17 09:39:11;;;;;;;12.63;3.30;;;;;;;;;;5023384;28;20110;-74
2023/05/17 09:41:45;;;;;;;10.18;3.35;;;;;;;;;;5045564;28;20033;-76
2023/05/17 09:44:13;;;;;;;8.23;3.20;;;;;;;;;;5044767;28;20474;-74
2023/05/17 09:46:50;;;;;;;9.65;3.30;;;;;;;;;;5005900;28;20350;-74
2023/05/17 09:49:16;;;;;;;8.60;2.75;;;;;;;;;;5030659;28;20035;-74
2023/05/17 09:51:44;;;;;;;9.82;2.75;;;;;;;;;;5012734;28;20037;-74
2023/05/17 09:54:10;;;;;;;6.97;2.65;;;;;;;;;;5002256;28;20045;-76
2023/05/17 09:56:37;;;;;;;6.32;2.90;;;;;;;;;;5024601;28;20560;-75
2023/05/17 09:59:11;;;;;;;9.23;3.13;;;;;;;;;;5034159;28;20029;-77
2023/05/17 10:01:42;;;;;;;11.00;3.58;;;;;;;;;;5035864;28;20028;-76
2023/05/17 10:04:09;;;;;;;6.80;2.78;;;;;;;;;;5044372;28;20037;-77
2023/05/17 10:06:40;;;;;;;5.78;2.90;;;;;;;;;;5031017;28;20667;-76
2023/05/17 10:09:12;;;;;;;11.65;2.80;;;;;;;;;;5065240;28;20039;-74
2023/05/17 10:11:40;;;;;;;5.90;2.45;;;;;;;;;;5043069;28;20058;-76
2023/05/17 10:14:17;;;;;;;7.30;2.42;;;;;;;;;;5043341;28;20139;-75
2023/05/17 10:16:45;;;;;;;10.25;2.85;;;;;;;;;;5048608;28;20056;-77
2023/05/17 10:19:11;;;;;;;8.50;3.13;;;;;;;;;;5036407;28;20025;-75
2023/05/17 10:21:43;;;;;;;6.80;2.60;;;;;;;;;;5046968;28;20028;-75
2023/05/17 10:24:11;;;;;;;9.77;2.70;;;;;;;;;;5042992;28;20377;-76
2023/05/17 10:26:37;;;;;;;9.07;2.13;;;;;;;;;;5044647;28;20043;-76
2023/05/17 10:29:05;;;;;;;5.93;2.55;;;;;;;;;;5048297;28;20028;-75
2023/05/17 10:31:32;;;;;;;14.57;3.17;;;;;;;;;;5047717;28;20279;-76
2023/05/17 10:34:00;;;;;;;8.13;3.88;;;;;;;;;;5046468;28;20066;-75
2023/05/17 10:36:27;;;;;;;6.82;3.33;;;;;;;;;;5018142;28;20029;-75
2023/05/17 10:38:54;;;;;;;8.63;4.50;;;;;;;;;;5036976;28;20036;-76
2023/05/17 10:41:23;;;;;;;7.20;3.25;;;;;;;;;;5020496;28;20048;-75
2023/05/17 10:43:49;;;;;;;16.52;4.32;;;;;;;;;;5051060;28;20036;-75
2023/05/17 10:46:21;;;;;;;7.25;3.63;;;;;;;;;;5040417;28;20051;-76
2023/05/17 10:48:52;;;;;;;9.20;3.25;;;;;;;;;;5045577;28;20017;-73
2023/05/17 10:51:34;;;;;;;8.50;3.42;;;;;;;;;;5034055;28;20032;-76
2023/05/17 10:54:10;;;;;;;7.63;3.38;;;;;;;;;;5035082;28;20106;-75
2023/05/17 10:56:45;;;;;;;8.68;3.85;;;;;;;;;;5029235;28;20025;-76
2023/05/17 10:59:16;;;;;;;15.55;3.75;;;;;;;;;;5007259;28;20037;-75
2023/05/17 11:02:03;;;;;;;9.30;3.80;;;;;;;;;;5036432;28;20068;-76
2023/05/17 11:04:38;;;;;;;10.55;4.80;;;;;;;;;;5015049;28;20831;-76
2023/05/17 11:07:17;;;;;;;7.10;4.80;;;;;;;;;;5017161;28;20021;-74
2023/05/17 11:10:10;;;;;;;10.68;4.35;;;;;;;;;;5049142;28;20099;-76
2023/05/17 11:12:41;;;;;;;10.70;4.70;;;;;;;;;;4999561;28;20034;-75
2023/05/17 11:15:12;;;;;;;9.85;3.80;;;;;;;;;;5020311;28;20029;-74
2023/05/17 11:17:49;;;;;;;17.93;3.27;;;;;;;;;;5018466;28;20130;-75
2023/05/17 11:20:23;;;;;;;10.88;3.20;;;;;;;;;;5029165;28;20121;-75
2023/05/17 11:22:55;;;;;;;7.70;3.30;;;;;;;;;;5014210;28;20041;-75
2023/05/17 11:25:21;;;;;;;7.03;2.85;;;;;;;;;;5022158;28;20040;-74
2023/05/17 11:27:50;;;;;;;5.63;2.35;;;;;;;;;;5035165;28;20021;-75
2023/05/17 11:30:29;;;;;;;14.07;4.05;;;;;;;;;;5038689;28;20219;-76
2023/05/17 11:33:02;;;;;;;8.15;3.88;;;;;;;;;;5033332;28;20118;-76
2023/05/17 11:35:31;;;;;;;7.50;2.97;;;;;;;;;;5022550;28;20404;-75
2023/05/17 11:38:15;;;;;;;12.13;3.72;;;;;;;;;;5034584;28;20144;-76
2023/05/17 11:40:41;;;;;;;10.48;3.42;;;;;;;;;;5026821;28;20064;-75
2023/05/17 11:43:11;;;;;;;10.00;3.38;;;;;;;;;;5024835;28;20028;-75
2023/05/17 11:45:46;;;;;;;7.13;2.97;;;;;;;;;;5055395;28;20036;-75
2023/05/17 11:48:17;;;;;;;7.20;3.67;;;;;;;;;;5035009;28;20314;-75
2023/05/17 11:50:45;;;;;;;9.05;2.83;;;;;;;;;;5047930;28;20086;-75
2023/05/17 11:53:13;;;;;;;6.47;3.33;;;;;;;;;;5031671;28;20041;-74
2023/05/17 11:55:44;;;;;;;9.65;3.75;;;;;;;;;;5028801;28;20060;-76
2023/05/17 11:58:12;;;;;;;15.18;4.22;;;;;;;;;;5049266;28;20032;-75
2023/05/17 12:00:41;;;;;;;10.30;4.28;;;;;;;;;;5017981;28;20428;-74
2023/05/17 12:03:25;;;;;;;9.32;3.83;;;;;;;;;;5019267;28;20393;-76
2023/05/17 12:06:03;;;;;;;9.43;4.50;;;;;;;;;;5017323;28;20053;-75
2023/05/17 12:08:30;;;;;;;9.10;4.65;;;;;;;;;;5024527;28;20036;-75
2023/05/17 12:10:56;;;;;;;9.52;4.65;;;;;;;;;;5061012;28;20074;-77
2023/05/17 12:13:23;;;;;;;9.02;4.25;;;;;;;;;;5053213;28;20118;-74
2023/05/17 12:16:04;;;;;;;7.82;3.63;;;;;;;;;;5038625;28;20028;-78
2023/05/17 12:18:42;;;;;;;6.85;3.15;;;;;;;;;;5030903;28;20052;-78
2023/05/17 12:21:09;;;;;;;12.48;3.33;;;;;;;;;;5041199;28;20041;-77
2023/05/17 12:23:38;;;;;;;7.60;3.25;;;;;;;;;;5029719;28;20427;-77
2023/05/17 12:26:12;;;;;;;7.65;2.50;;;;;;;;;;5042562;28;20150;-78
2023/05/17 12:28:39;;;;;;;7.88;2.83;;;;;;;;;;5032911;28;20040;-78
2023/05/17 12:31:17;;;;;;;6.43;3.05;;;;;;;;;;5027777;28;20155;-76
2023/05/17 12:33:43;;;;;;;11.07;3.15;;;;;;;;;;5012234;28;20655;-77
2023/05/17 12:36:11;;;;;;;7.93;2.80;;;;;;;;;;5037023;28;20028;-78
2023/05/17 12:38:43;;;;;;;10.10;3.00;;;;;;;;;;5044710;28;20043;-77
2023/05/17 12:41:11;;;;;;;6.40;2.78;;;;;;;;;;5028426;28;20576;-79
2023/05/17 12:43:40;;;;;;;10.82;3.50;;;;;;;;;;5012121;28;20138;-80
2023/05/17 12:46:08;;;;;;;11.48;3.50;;;;;;;;;;5013755;28;20037;-76
2023/05/17 12:48:38;;;;;;;8.88;3.88;;;;;;;;;;5017945;28;21536;-77
2023/05/17 12:51:21;;;;;;;7.97;3.08;;;;;;;;;;5033034;28;20110;-79
2023/05/17 12:53:51;;;;;;;10.70;3.58;;;;;;;;;;5038426;28;20033;-79
2023/05/17 12:56:23;;;;;;;7.10;3.85;;;;;;;;;;5037385;28;20523;-79
2023/05/17 12:59:10;;;;;;;9.30;3.15;;;;;;;;;;5029089;28;20017;-78
2023/05/17 13:01:45;;;;;;;9.85;3.28;;;;;;;;;;5065799;28;20027;-77
2023/05/17 13:04:11;;;;;;;15.35;4.63;;;;;;;;;;5063884;28;20039;-77
2023/05/17 13:06:56;;;;;;;7.43;3.58;;;;;;;;;;5039203;28;20032;-77
2023/05/17 13:09:24;;;;;;;7.88;3.78;;;;;;;;;;5033342;28;20505;-77
2023/05/17 13:11:58;;;;;;;10.15;3.47;;;;;;;;;;5034191;28;20178;-79
2023/05/17 13:14:34;;;;;;;8.88;3.13;;;;;;;;;;5045956;28;20504;-77
2023/05/17 13:17:00;;;;;;;8.43;3.13;;;;;;;;;;5051640;28;20048;-78
2023/05/17 13:19:26;;;;;;;8.82;3.28;;;;;;;;;;5023774;28;20119;-77
2023/05/17 13:21:52;;;;;;;9.18;4.90;;;;;;;;;;5039107;28;20714;-76
2023/05/17 13:24:17;;;;;;;11.50;3.67;;;;;;;;;;5029414;28;20029;-79
2023/05/17 13:26:43;;;;;;;9.15;3.45;;;;;;;;;;5032190;28;20025;-74
2023/05/17 13:29:09;;;;;;;9.63;3.75;;;;;;;;;;5027212;28;20429;-74
2023/05/17 13:31:34;;;;;;;9.52;3.95;;;;;;;;;;5042708;28;20065;-76
2023/05/17 13:34:00;;;;;;;7.72;3.60;;;;;;;;;;5037446;28;20048;-76
2023/05/17 13:36:28;;;;;;;9.15;3.45;;;;;;;;;;5025981;28;20040;-77
2023/05/17 13:38:55;;;;;;;9.52;3.08;;;;;;;;;;5024662;28;20076;-74
2023/05/17 13:41:21;;;;;;;9.95;3.58;;;;;;;;;;5012824;28;20411;-75
2023/05/17 13:43:47;;;;;;;11.38;3.90;;;;;;;;;;5041733;28;20017;-74
2023/05/17 13:46:13;;;;;;;9.90;3.38;;;;;;;;;;5018683;28;20520;-74
2023/05/17 13:48:38;;;;;;;5.95;2.97;;;;;;;;;;5018338;28;20045;-76
2023/05/17 13:51:04;;;;;;;9.80;3.38;;;;;;;;;;5021495;28;20482;-75
2023/05/17 13:53:31;;;;;;;7.18;3.53;;;;;;;;;;5049766;28;20057;-79
2023/05/17 13:55:57;;;;;;;14.77;3.67;;;;;;;;;;5026286;28;20500;-77
2023/05/17 13:58:22;;;;;;;7.50;3.40;;;;;;;;;;5018497;28;20171;-73
2023/05/17 14:00:49;;;;;;;7.65;3.33;;;;;;;;;;5019879;28;20117;-75
2023/05/17 14:03:16;;;;;;;7.13;3.70;;;;;;;;;;5009130;28;20033;-73
2023/05/17 14:05:43;;;;;;;6.28;3.60;;;;;;;;;;5020585;28;20696;-75
2023/05/17 14:08:08;;;;;;;8.70;3.58;;;;;;;;;;5044612;28;20025;-80
2023/05/17 14:10:35;;;;;;;8.13;3.55;;;;;;;;;;5043697;28;20504;-75
2023/05/17 14:13:01;;;;;;;11.90;4.50;;;;;;;;;;5014035;28;20025;-76
2023/05/17 14:15:27;;;;;;;9.25;3.38;;;;;;;;;;5021895;28;20033;-76
2023/05/17 14:17:53;;;;;;;7.72;3.53;;;;;;;;;;5030918;28;20040;-76
2023/05/17 14:20:18;;;;;;;8.43;4.15;;;;;;;;;;5042852;28;20041;-76
2023/05/17 14:22:45;;;;;;;10.35;4.10;;;;;;;;;;5022667;28;20128;-77
2023/05/17 14:25:11;;;;;;;12.63;3.90;;;;;;;;;;5036130;28;20495;-77
2023/05/17 14:27:38;;;;;;;9.10;4.15;;;;;;;;;;5032495;28;20028;-75
2023/05/17 14:30:04;;;;;;;7.18;3.13;;;;;;;;;;5050215;28;20029;-76
2023/05/17 14:32:30;;;;;;;8.00;3.25;;;;;;;;;;5030915;28;20092;-75
2023/05/17 14:34:56;;;;;;;6.13;3.10;;;;;;;;;;5048917;28;20468;-76
2023/05/17 14:37:23;;;;;;;13.52;3.35;;;;;;;;;;5043679;28;20031;-75
2023/05/17 14:39:48;;;;;;;10.48;4.00;;;;;;;;;;5030662;28;20029;-77
2023/05/17 14:42:14;;;;;;;7.90;3.40;;;;;;;;;;5041164;28;20431;-76
2023/05/17 14:44:39;;;;;;;7.85;3.08;;;;;;;;;;5040947;28;20025;-76
2023/05/17 14:47:09;;;;;;;11.48;3.22;;;;;;;;;;5052133;28;20024;-77